Time;durP1;ratioP1;P1;durP2;ratioP2;P2;SDS_P1;SDS_P2;PMS_P1;PMS_P2;Temp;Humidity;BMP_temperature;BMP_pressure;BME280_temperature;BME280_humidity;BME280_pressure;Samples;Min_cycle;Max_cycle;Signal;HPM_P1;HPM_P2
2023/07/20 00:01:10;;;;;;;;;;;23.20;99.90;;;;;;6109866;23;19956;-72
2023/07/20 00:03:36;;;;;;;;;;;23.10;99.90;;;;;;6109836;23;19931;-72
2023/07/20 00:06:04;;;;;;;;;;;23.10;99.90;;;;;;6109569;23;19931;-73
2023/07/20 00:08:29;;;;;;;;;;;23.10;99.90;;;;;;6108656;23;19954;-73
2023/07/20 00:10:55;;;;;;;;;;;23.10;99.90;;;;;;6107970;23;19951;-72
2023/07/20 00:13:21;;;;;;;;;;;23.00;99.90;;;;;;6107983;23;20617;-72
2023/07/20 00:15:46;;;;;;;;;;;23.00;99.90;;;;;;6108780;23;19927;-72
2023/07/20 00:18:12;;;;;;;;;;;23.00;99.90;;;;;;6110266;23;19937;-72
2023/07/20 00:20:38;;;;;;;;;;;22.90;99.90;;;;;;6108256;23;19927;-72
2023/07/20 00:23:03;;;;;;;;;;;22.90;99.90;;;;;;6107054;23;20401;-72
2023/07/20 00:25:29;;;;;;;;;;;22.90;99.90;;;;;;6107359;23;19928;-72
2023/07/20 00:27:55;;;;;;;;;;;22.80;99.90;;;;;;6108025;23;19980;-77
2023/07/20 00:30:20;;;;;;;;;;;22.70;99.90;;;;;;6107385;23;19934;-78
2023/07/20 00:32:46;;;;;;;;;;;22.70;99.90;;;;;;6110477;23;19927;-78
2023/07/20 00:35:11;;;;;;;;;;;22.60;99.90;;;;;;6109839;23;20367;-77
2023/07/20 00:37:39;;;;;;;;;;;22.50;99.90;;;;;;6109549;23;19965;-78
2023/07/20 00:40:05;;;;;;;;;;;22.50;99.90;;;;;;6108686;23;19960;-78
2023/07/20 00:42:31;;;;;;;;;;;22.40;99.90;;;;;;6108785;23;19952;-79
2023/07/20 00:44:56;;;;;;;;;;;22.40;99.90;;;;;;6107823;23;20003;-78
2023/07/20 00:47:22;;;;;;;;;;;22.40;99.90;;;;;;6112051;23;19948;-79
2023/07/20 00:49:48;;;;;;;;;;;22.40;99.90;;;;;;6112282;23;19986;-79
2023/07/20 00:52:14;;;;;;;;;;;22.30;99.90;;;;;;6110950;23;20529;-78
2023/07/20 00:54:40;;;;;;;;;;;22.40;99.90;;;;;;6112153;23;19936;-78
2023/07/20 00:57:06;;;;;;;;;;;22.40;99.90;;;;;;6112229;23;19942;-79
2023/07/20 00:59:31;;;;;;;;;;;22.40;99.90;;;;;;6109179;23;19944;-79
2023/07/20 01:01:57;;;;;;;;;;;22.40;99.90;;;;;;6109188;23;19927;-77
2023/07/20 01:04:22;;;;;;;;;;;22.50;99.90;;;;;;6112557;23;19932;-78
2023/07/20 01:06:56;;;;;;;;;;;22.50;99.90;;;;;;6111757;23;19986;-79
2023/07/20 01:09:27;;;;;;;;;;;22.50;99.90;;;;;;6111612;23;19968;-79
2023/07/20 01:12:07;;;;;;;;;;;22.50;99.90;;;;;;6109431;23;19938;-78
2023/07/20 01:14:34;;;;;;;;;;;22.50;99.90;;;;;;6110484;23;20009;-78
2023/07/20 01:16:59;;;;;;;;;;;22.50;99.90;;;;;;6109926;23;19937;-79
2023/07/20 01:19:25;;;;;;;;;;;22.50;99.90;;;;;;6110658;23;20729;-78
2023/07/20 01:22:14;;;;;;;;;;;22.50;99.90;;;;;;6110579;23;19989;-78
2023/07/20 01:24:39;;;;;;;;;;;22.50;99.90;;;;;;6099419;23;19941;-77
2023/07/20 01:27:25;;;;;;;;;;;22.50;99.90;;;;;;6109899;23;20031;-79
2023/07/20 01:30:02;;;;;;;;;;;22.50;99.90;;;;;;6110043;23;20262;-78
2023/07/20 01:32:28;;;;;;;;;;;22.50;99.90;;;;;;6109700;23;19972;-77
2023/07/20 01:34:54;;;;;;;;;;;22.40;99.90;;;;;;6109901;23;19955;-80
2023/07/20 01:37:20;;;;;;;;;;;22.40;99.90;;;;;;6109158;23;20017;-79
2023/07/20 01:39:46;;;;;;;;;;;22.30;99.90;;;;;;6110232;23;20555;-79
2023/07/20 01:42:12;;;;;;;;;;;22.30;99.90;;;;;;6111032;23;19932;-79
2023/07/20 01:44:37;;;;;;;;;;;22.30;99.90;;;;;;6109233;23;19977;-79
2023/07/20 01:47:03;;;;;;;;;;;22.20;99.90;;;;;;6108847;23;20023;-79
2023/07/20 01:49:29;;;;;;;;;;;22.20;99.90;;;;;;6110626;23;19954;-80
2023/07/20 01:51:54;;;;;;;;;;;22.10;99.90;;;;;;6109966;23;19937;-80
2023/07/20 01:54:21;;;;;;;;;;;22.10;99.90;;;;;;6110991;23;20806;-78
2023/07/20 01:56:46;;;;;;;;;;;22.00;99.90;;;;;;6110219;23;19957;-79
2023/07/20 01:59:12;;;;;;;;;;;21.90;99.90;;;;;;6109584;23;19994;-78
2023/07/20 02:01:38;;;;;;;;;;;21.80;99.90;;;;;;6108824;23;19986;-78
2023/07/20 02:04:03;;;;;;;;;;;21.70;99.90;;;;;;6111287;23;19927;-78
2023/07/20 02:06:29;;;;;;;;;;;21.70;99.90;;;;;;6109565;23;19936;-79
2023/07/20 02:08:54;;;;;;;;;;;21.60;99.90;;;;;;6110880;23;20022;-79
2023/07/20 02:11:20;;;;;;;;;;;21.50;99.90;;;;;;6109436;23;19937;-78
2023/07/20 02:13:45;;;;;;;;;;;21.50;99.90;;;;;;6111338;23;20297;-79
2023/07/20 02:16:11;;;;;;;;;;;21.30;99.90;;;;;;6109503;23;19935;-77
2023/07/20 02:18:36;;;;;;;;;;;21.30;99.90;;;;;;6110497;23;19936;-79
2023/07/20 02:21:02;;;;;;;;;;;21.20;99.90;;;;;;6108740;23;19928;-79
2023/07/20 02:23:28;;;;;;;;;;;21.10;99.90;;;;;;6110889;23;20449;-80
2023/07/20 02:25:53;;;;;;;;;;;21.10;99.90;;;;;;6109245;23;19940;-80
2023/07/20 02:28:19;;;;;;;;;;;21.00;99.90;;;;;;6110309;23;20027;-79
2023/07/20 02:30:44;;;;;;;;;;;21.10;99.90;;;;;;6106135;23;19937;-79
2023/07/20 02:33:10;;;;;;;;;;;21.00;99.90;;;;;;6106415;23;19943;-79
2023/07/20 02:35:35;;;;;;;;;;;21.00;99.90;;;;;;6109289;23;20488;-79
2023/07/20 02:38:01;;;;;;;;;;;21.00;99.90;;;;;;6109458;23;19945;-79
2023/07/20 02:40:27;;;;;;;;;;;21.00;99.90;;;;;;6111173;23;19929;-77
2023/07/20 02:42:53;;;;;;;;;;;20.90;99.90;;;;;;6110587;23;19963;-78
2023/07/20 02:45:18;;;;;;;;;;;20.90;99.90;;;;;;6106763;23;19971;-78
2023/07/20 02:47:44;;;;;;;;;;;20.80;99.90;;;;;;6108687;23;19991;-78
2023/07/20 02:50:09;;;;;;;;;;;20.80;99.90;;;;;;6108789;23;20223;-78
2023/07/20 02:52:35;;;;;;;;;;;20.70;99.90;;;;;;6108992;23;19997;-78
2023/07/20 02:55:00;;;;;;;;;;;20.70;99.90;;;;;;6107487;23;20350;-72
2023/07/20 02:57:27;;;;;;;;;;;20.60;99.90;;;;;;6109141;23;20346;-72
2023/07/20 02:59:52;;;;;;;;;;;20.60;99.90;;;;;;6105618;23;19952;-72
2023/07/20 03:02:18;;;;;;;;;;;20.60;99.90;;;;;;6110006;23;19957;-72
2023/07/20 03:04:43;;;;;;;;;;;20.50;99.90;;;;;;6107593;23;19928;-72
2023/07/20 03:07:09;;;;;;;;;;;20.50;99.90;;;;;;6105365;23;19928;-71
2023/07/20 03:09:34;;;;;;;;;;;20.50;99.90;;;;;;6109093;23;20358;-72
2023/07/20 03:12:00;;;;;;;;;;;20.40;99.90;;;;;;6110107;23;20033;-79
2023/07/20 03:14:26;;;;;;;;;;;20.40;99.90;;;;;;6110065;23;19936;-78
2023/07/20 03:16:51;;;;;;;;;;;20.40;99.90;;;;;;6108633;23;20373;-79
2023/07/20 03:19:17;;;;;;;;;;;20.40;99.90;;;;;;6112046;23;20046;-79
2023/07/20 03:21:43;;;;;;;;;;;20.40;99.90;;;;;;6110233;23;19940;-77
2023/07/20 03:24:09;;;;;;;;;;;20.40;99.90;;;;;;6105463;23;20007;-79
2023/07/20 03:26:34;;;;;;;;;;;20.40;99.90;;;;;;6109256;23;19981;-78
2023/07/20 03:29:00;;;;;;;;;;;20.40;99.90;;;;;;6110379;23;19951;-79
2023/07/20 03:31:26;;;;;;;;;;;20.40;99.90;;;;;;6109175;23;19931;-78
2023/07/20 03:33:51;;;;;;;;;;;20.40;99.90;;;;;;6108261;23;20237;-78
2023/07/20 03:36:17;;;;;;;;;;;20.40;99.90;;;;;;6108535;23;20590;-79
2023/07/20 03:38:42;;;;;;;;;;;20.50;99.90;;;;;;6108949;23;19932;-79
2023/07/20 03:41:09;;;;;;;;;;;20.60;99.90;;;;;;6108114;23;20312;-78
2023/07/20 03:43:34;;;;;;;;;;;20.60;99.90;;;;;;6107663;23;20279;-78
2023/07/20 03:46:00;;;;;;;;;;;20.60;99.90;;;;;;6108491;23;19937;-78
2023/07/20 03:48:25;;;;;;;;;;;20.60;99.90;;;;;;6109117;23;20653;-72
2023/07/20 03:50:52;;;;;;;;;;;20.50;99.90;;;;;;6109202;23;19937;-72
2023/07/20 03:53:17;;;;;;;;;;;20.40;99.90;;;;;;6111970;23;19952;-72
2023/07/20 03:55:46;;;;;;;;;;;20.30;99.90;;;;;;6110376;23;19928;-72
2023/07/20 03:58:13;;;;;;;;;;;20.40;99.90;;;;;;6110189;23;20411;-72
2023/07/20 04:00:38;;;;;;;;;;;20.30;99.90;;;;;;6109687;23;20461;-72
2023/07/20 04:03:04;;;;;;;;;;;20.40;99.90;;;;;;6110543;23;19930;-71
2023/07/20 04:05:29;;;;;;;;;;;20.40;99.90;;;;;;6109717;23;19927;-71
2023/07/20 04:07:55;;;;;;;;;;;20.50;99.90;;;;;;6109799;23;19934;-71
2023/07/20 04:10:20;;;;;;;;;;;20.50;99.90;;;;;;6112308;23;20315;-71
2023/07/20 04:12:49;;;;;;;;;;;20.50;99.90;;;;;;6111098;23;19961;-71
2023/07/20 04:15:14;;;;;;;;;;;20.60;99.90;;;;;;6107878;23;19932;-71
2023/07/20 04:17:40;;;;;;;;;;;20.70;99.90;;;;;;6109990;23;20012;-71
2023/07/20 04:20:06;;;;;;;;;;;20.80;99.90;;;;;;6111931;23;19928;-71
2023/07/20 04:22:32;;;;;;;;;;;20.80;99.90;;;;;;6111853;23;19933;-70
2023/07/20 04:24:57;;;;;;;;;;;20.80;99.90;;;;;;6110715;23;20811;-72
2023/07/20 04:27:23;;;;;;;;;;;20.80;99.90;;;;;;6109721;23;19940;-72
2023/07/20 04:29:48;;;;;;;;;;;20.90;99.90;;;;;;6112081;23;20045;-73
2023/07/20 04:32:14;;;;;;;;;;;21.00;99.90;;;;;;6108426;23;19930;-72
2023/07/20 04:34:39;;;;;;;;;;;21.10;99.90;;;;;;6110387;23;20465;-70
2023/07/20 04:37:05;;;;;;;;;;;21.20;99.90;;;;;;6111195;23;19932;-71
2023/07/20 04:39:30;;;;;;;;;;;21.30;99.90;;;;;;6109910;23;20352;-71
2023/07/20 04:41:56;;;;;;;;;;;21.40;99.90;;;;;;6111383;23;20552;-72
2023/07/20 04:44:22;;;;;;;;;;;21.50;99.90;;;;;;6111228;23;20643;-72
2023/07/20 04:46:47;;;;;;;;;;;21.60;99.90;;;;;;6108742;23;20416;-79
2023/07/20 04:49:13;;;;;;;;;;;21.70;99.90;;;;;;6111722;23;19961;-79
2023/07/20 04:51:39;;;;;;;;;;;21.80;99.90;;;;;;6107136;23;19973;-79
2023/07/20 04:54:04;;;;;;;;;;;21.90;99.90;;;;;;6108149;23;19939;-80
2023/07/20 04:56:30;;;;;;;;;;;22.00;99.90;;;;;;6111556;23;19940;-79
2023/07/20 04:58:55;;;;;;;;;;;22.10;99.90;;;;;;6111109;23;19928;-79
2023/07/20 05:01:21;;;;;;;;;;;22.10;99.90;;;;;;6108871;23;20003;-79
2023/07/20 05:03:46;;;;;;;;;;;22.20;99.90;;;;;;6109429;23;19999;-79
2023/07/20 05:06:12;;;;;;;;;;;22.30;99.90;;;;;;6111566;23;20415;-78
2023/07/20 05:08:38;;;;;;;;;;;22.50;99.90;;;;;;6110897;23;19957;-78
2023/07/20 05:11:04;;;;;;;;;;;22.50;99.90;;;;;;6109254;23;19928;-79
2023/07/20 05:13:30;;;;;;;;;;;22.60;99.90;;;;;;6110244;23;19965;-79
2023/07/20 05:15:55;;;;;;;;;;;22.60;99.90;;;;;;6111384;23;20036;-79
2023/07/20 05:18:21;;;;;;;;;;;22.70;99.90;;;;;;6111071;23;19926;-79
2023/07/20 05:20:47;;;;;;;;;;;22.70;99.90;;;;;;6109303;23;20241;-79
2023/07/20 05:23:13;;;;;;;;;;;22.70;99.90;;;;;;6110877;23;19933;-79
2023/07/20 05:25:38;;;;;;;;;;;22.70;99.90;;;;;;6110008;23;19932;-72
2023/07/20 05:28:04;;;;;;;;;;;22.80;99.90;;;;;;6108570;23;20118;-72
2023/07/20 05:30:29;;;;;;;;;;;22.90;99.90;;;;;;6109395;23;19937;-72
2023/07/20 05:32:55;;;;;;;;;;;23.00;99.90;;;;;;6110091;23;20015;-73
2023/07/20 05:35:20;;;;;;;;;;;23.20;99.90;;;;;;6111348;23;20326;-72
2023/07/20 05:37:46;;;;;;;;;;;23.30;99.90;;;;;;6108547;23;19925;-73
2023/07/20 05:40:12;;;;;;;;;;;23.40;99.90;;;;;;6110263;23;19932;-72
2023/07/20 05:42:38;;;;;;;;;;;23.60;99.90;;;;;;6109496;23;20328;-72
2023/07/20 05:45:03;;;;;;;;;;;23.70;99.90;;;;;;6107145;23;20411;-72
2023/07/20 05:47:29;;;;;;;;;;;23.80;99.90;;;;;;6108910;23;19960;-71
2023/07/20 05:49:54;;;;;;;;;;;23.90;99.90;;;;;;6110135;23;20026;-72
2023/07/20 05:52:20;;;;;;;;;;;24.10;99.90;;;;;;6108513;23;20559;-71
2023/07/20 05:54:46;;;;;;;;;;;24.10;99.90;;;;;;6109647;23;19977;-71
2023/07/20 05:57:11;;;;;;;;;;;24.20;99.90;;;;;;6110171;23;20315;-70
2023/07/20 05:59:38;;;;;;;;;;;24.30;99.90;;;;;;6110683;23;19953;-72
2023/07/20 06:02:04;;;;;;;;;;;24.30;99.90;;;;;;6107342;23;20582;-72
2023/07/20 06:04:29;;;;;;;;;;;24.30;99.90;;;;;;6108559;23;19967;-72
2023/07/20 06:06:55;;;;;;;;;;;24.40;99.90;;;;;;6109808;23;20008;-71
2023/07/20 06:09:20;;;;;;;;;;;24.50;99.90;;;;;;6109830;23;20287;-72
2023/07/20 06:11:46;;;;;;;;;;;24.50;99.90;;;;;;6110334;23;20232;-72
2023/07/20 06:14:11;;;;;;;;;;;24.60;99.90;;;;;;6109102;23;19942;-71
2023/07/20 06:16:37;;;;;;;;;;;24.60;99.90;;;;;;6109681;23;19931;-71
2023/07/20 06:19:02;;;;;;;;;;;24.60;99.90;;;;;;6108839;23;20335;-69
2023/07/20 06:21:28;;;;;;;;;;;24.70;99.90;;;;;;6110031;23;20028;-73
2023/07/20 06:23:53;;;;;;;;;;;24.80;99.90;;;;;;6108364;23;20576;-70
2023/07/20 06:26:19;;;;;;;;;;;24.90;99.90;;;;;;6110148;23;20620;-70
2023/07/20 06:28:45;;;;;;;;;;;25.00;99.90;;;;;;6108569;23;20415;-70
2023/07/20 06:31:11;;;;;;;;;;;25.10;99.90;;;;;;6105386;23;20004;-65
2023/07/20 06:33:36;;;;;;;;;;;25.20;99.90;;;;;;6110723;23;20051;-69
2023/07/20 06:36:02;;;;;;;;;;;25.20;99.90;;;;;;6107908;23;19936;-67
2023/07/20 06:38:29;;;;;;;;;;;25.10;99.90;;;;;;6110762;23;19941;-67
2023/07/20 06:40:54;;;;;;;;;;;25.10;99.90;;;;;;6108209;23;20031;-67
2023/07/20 06:43:20;;;;;;;;;;;25.10;99.90;;;;;;6109620;23;20087;-67
2023/07/20 06:45:51;;;;;;;;;;;25.20;99.90;;;;;;6109584;23;20710;-66
2023/07/20 06:48:16;;;;;;;;;;;25.30;99.90;;;;;;6111241;23;19947;-66
2023/07/20 06:50:42;;;;;;;;;;;25.50;99.90;;;;;;6107966;23;19937;-66
2023/07/20 06:53:08;;;;;;;;;;;25.60;99.90;;;;;;6109683;23;19926;-68
2023/07/20 06:55:33;;;;;;;;;;;25.60;99.90;;;;;;6109776;23;20329;-68
2023/07/20 06:57:59;;;;;;;;;;;25.50;99.90;;;;;;6107025;23;19924;-69
2023/07/20 07:00:24;;;;;;;;;;;25.60;99.90;;;;;;6106647;23;19940;-70
2023/07/20 07:02:50;;;;;;;;;;;25.70;99.20;;;;;;6107896;23;20303;-71
2023/07/20 07:05:15;;;;;;;;;;;25.70;99.90;;;;;;6108396;23;20010;-73
2023/07/20 07:07:41;;;;;;;;;;;25.70;99.20;;;;;;6106405;23;20062;-71
2023/07/20 07:10:08;;;;;;;;;;;25.70;98.00;;;;;;6105773;23;19949;-70
2023/07/20 07:12:34;;;;;;;;;;;25.50;97.60;;;;;;6107667;23;19934;-73
2023/07/20 07:15:00;;;;;;;;;;;25.30;98.60;;;;;;6107156;23;19931;-72
2023/07/20 07:17:25;;;;;;;;;;;25.20;99.40;;;;;;6107288;23;19923;-72
2023/07/20 07:19:53;;;;;;;;;;;25.10;99.20;;;;;;6109721;23;20297;-73
2023/07/20 07:22:19;;;;;;;;;;;25.20;99.90;;;;;;6110778;23;19929;-73
2023/07/20 07:24:44;;;;;;;;;;;25.00;99.80;;;;;;6108043;23;19925;-73
2023/07/20 07:27:10;;;;;;;;;;;24.90;99.90;;;;;;6107961;23;19982;-71
2023/07/20 07:29:35;;;;;;;;;;;24.80;99.90;;;;;;6106432;23;20470;-74
2023/07/20 07:32:01;;;;;;;;;;;24.60;99.90;;;;;;6108218;23;20012;-75
2023/07/20 07:34:27;;;;;;;;;;;24.50;99.90;;;;;;6109417;23;19945;-76
2023/07/20 07:36:52;;;;;;;;;;;24.40;99.90;;;;;;6108349;23;19923;-76
2023/07/20 07:39:18;;;;;;;;;;;24.30;99.90;;;;;;6109865;23;19995;-76
2023/07/20 07:41:43;;;;;;;;;;;24.30;99.90;;;;;;6104591;23;20336;-78
2023/07/20 07:44:09;;;;;;;;;;;24.40;99.90;;;;;;6107569;23;20316;-72
2023/07/20 07:46:34;;;;;;;;;;;24.40;99.90;;;;;;6106534;23;19994;-79
2023/07/20 07:49:00;;;;;;;;;;;24.60;99.90;;;;;;6106497;23;19953;-69
2023/07/20 07:51:27;;;;;;;;;;;24.70;99.90;;;;;;6104914;23;19925;-68
2023/07/20 07:53:52;;;;;;;;;;;24.80;99.90;;;;;;6105931;23;20520;-70
2023/07/20 07:56:22;;;;;;;;;;;24.90;99.90;;;;;;6106498;23;19929;-70
2023/07/20 07:58:51;;;;;;;;;;;25.10;99.90;;;;;;6108565;23;19942;-71
2023/07/20 08:01:18;;;;;;;;;;;25.10;99.90;;;;;;6107010;23;20225;-72
2023/07/20 08:03:46;;;;;;;;;;;25.30;99.90;;;;;;6106899;23;19931;-69
2023/07/20 08:06:13;;;;;;;;;;;25.40;99.90;;;;;;6104532;23;19937;-71
2023/07/20 08:08:38;;;;;;;;;;;25.40;99.90;;;;;;6109630;23;19961;-71
2023/07/20 08:11:04;;;;;;;;;;;25.40;99.90;;;;;;6110172;23;19926;-71
2023/07/20 08:13:29;;;;;;;;;;;25.50;99.90;;;;;;6111459;23;20019;-71
2023/07/20 08:15:55;;;;;;;;;;;25.50;99.90;;;;;;6108074;23;20424;-75
2023/07/20 08:18:21;;;;;;;;;;;25.50;99.90;;;;;;6109941;23;19950;-71
2023/07/20 08:20:47;;;;;;;;;;;25.50;99.90;;;;;;6108069;23;19927;-71
2023/07/20 08:23:13;;;;;;;;;;;25.50;99.90;;;;;;6107998;23;19934;-71
2023/07/20 08:25:44;;;;;;;;;;;25.40;99.90;;;;;;6109894;23;19928;-72
2023/07/20 08:28:11;;;;;;;;;;;25.40;99.90;;;;;;6106200;23;20627;-71
2023/07/20 08:30:43;;;;;;;;;;;25.50;99.90;;;;;;6109436;23;19930;-69
2023/07/20 08:33:13;;;;;;;;;;;25.40;99.90;;;;;;6101089;23;19984;-69
2023/07/20 08:35:39;;;;;;;;;;;25.40;99.90;;;;;;6107812;23;20031;-68
2023/07/20 08:38:04;;;;;;;;;;;25.40;99.90;;;;;;6109534;23;19970;-68
2023/07/20 08:40:33;;;;;;;;;;;25.40;99.90;;;;;;6107992;23;19965;-69
2023/07/20 08:43:02;;;;;;;;;;;25.40;99.90;;;;;;6105706;23;20458;-70
2023/07/20 08:45:31;;;;;;;;;;;25.40;99.90;;;;;;6109917;23;19932;-70
2023/07/20 08:48:00;;;;;;;;;;;25.50;99.90;;;;;;6105193;23;19924;-70
2023/07/20 08:50:26;;;;;;;;;;;25.40;99.90;;;;;;6108793;23;20361;-69
2023/07/20 08:52:52;;;;;;;;;;;25.50;99.90;;;;;;6109135;23;20046;-70
2023/07/20 08:55:18;;;;;;;;;;;25.60;99.90;;;;;;6110307;23;20021;-71
2023/07/20 08:57:45;;;;;;;;;;;25.60;99.90;;;;;;6105328;23;20115;-70
2023/07/20 09:00:13;;;;;;;;;;;25.60;99.90;;;;;;6106326;23;19939;-69
2023/07/20 09:02:41;;;;;;;;;;;25.60;99.90;;;;;;6105053;23;19970;-70
2023/07/20 09:05:07;;;;;;;;;;;25.70;99.90;;;;;;6109074;23;19931;-69
2023/07/20 09:07:35;;;;;;;;;;;25.70;99.90;;;;;;6101507;23;19955;-70
2023/07/20 09:10:05;;;;;;;;;;;25.80;99.90;;;;;;6101400;23;20035;-71
2023/07/20 09:12:31;;;;;;;;;;;25.80;99.90;;;;;;6104642;23;19927;-69
2023/07/20 09:14:57;;;;;;;;;;;25.80;99.90;;;;;;6105684;23;19949;-70
2023/07/20 09:17:25;;;;;;;;;;;25.90;99.90;;;;;;6109112;23;19925;-71
2023/07/20 09:19:50;;;;;;;;;;;26.00;99.90;;;;;;6110431;23;19927;-67
2023/07/20 09:22:17;;;;;;;;;;;26.10;99.90;;;;;;6109951;23;19926;-67
2023/07/20 09:24:43;;;;;;;;;;;26.20;99.90;;;;;;6108176;23;19929;-68
2023/07/20 09:27:09;;;;;;;;;;;26.30;99.90;;;;;;6110162;23;20325;-68
2023/07/20 09:29:46;;;;;;;;;;;26.40;98.90;;;;;;6104356;23;20046;-67
2023/07/20 09:32:12;;;;;;;;;;;26.30;99.70;;;;;;6106256;23;19930;-73
2023/07/20 09:34:37;;;;;;;;;;;26.30;97.70;;;;;;6106835;23;19997;-73
2023/07/20 09:37:03;;;;;;;;;;;26.30;98.20;;;;;;6106128;23;19926;-70
2023/07/20 09:39:29;;;;;;;;;;;26.40;96.00;;;;;;6109164;23;19975;-72
2023/07/20 09:41:59;;;;;;;;;;;26.40;95.10;;;;;;6110525;23;19928;-72
2023/07/20 09:44:27;;;;;;;;;;;26.30;96.00;;;;;;6108402;23;20445;-71
2023/07/20 09:46:53;;;;;;;;;;;26.30;96.70;;;;;;6108254;23;20277;-71
2023/07/20 09:49:18;;;;;;;;;;;26.30;96.50;;;;;;6108927;23;20440;-72
2023/07/20 09:51:45;;;;;;;;;;;26.30;98.30;;;;;;6102232;23;19933;-71
2023/07/20 09:54:11;;;;;;;;;;;26.30;97.00;;;;;;6105626;23;19959;-71
2023/07/20 09:56:38;;;;;;;;;;;26.40;97.20;;;;;;6106777;23;19984;-73
2023/07/20 09:59:04;;;;;;;;;;;26.40;97.40;;;;;;6105439;23;19930;-75
2023/07/20 10:01:30;;;;;;;;;;;26.40;97.80;;;;;;6108893;23;19930;-71
2023/07/20 10:03:58;;;;;;;;;;;26.30;98.30;;;;;;6109517;23;19933;-74
2023/07/20 10:06:24;;;;;;;;;;;26.30;98.40;;;;;;6107124;23;19931;-77
2023/07/20 10:08:52;;;;;;;;;;;26.30;96.50;;;;;;6109048;23;20262;-77
2023/07/20 10:11:17;;;;;;;;;;;26.10;97.40;;;;;;6108064;23;19960;-72
2023/07/20 10:13:43;;;;;;;;;;;26.20;95.00;;;;;;6104082;23;20510;-67
2023/07/20 10:16:22;;;;;;;;;;;26.30;95.30;;;;;;6105154;23;19956;-71
2023/07/20 10:18:53;;;;;;;;;;;26.50;97.70;;;;;;6106814;23;19923;-71
2023/07/20 10:21:19;;;;;;;;;;;26.80;97.90;;;;;;6107295;23;19993;-72
2023/07/20 10:23:46;;;;;;;;;;;27.00;97.40;;;;;;6106804;23;19964;-71
2023/07/20 10:26:11;;;;;;;;;;;27.00;96.10;;;;;;6105436;23;20014;-73
2023/07/20 10:28:38;;;;;;;;;;;27.10;95.70;;;;;;6107525;23;19985;-73
2023/07/20 10:31:03;;;;;;;;;;;27.20;95.80;;;;;;6108429;23;19934;-74
2023/07/20 10:33:29;;;;;;;;;;;27.30;96.40;;;;;;6107573;23;19943;-72
2023/07/20 10:35:55;;;;;;;;;;;27.40;95.50;;;;;;6105048;23;19929;-72
2023/07/20 10:38:40;;;;;;;;;;;27.40;95.70;;;;;;6105131;23;19925;-72
2023/07/20 10:41:26;;;;;;;;;;;27.30;94.70;;;;;;6103236;23;19944;-72
2023/07/20 10:43:57;;;;;;;;;;;27.10;94.20;;;;;;6108826;23;19958;-69
2023/07/20 10:46:38;;;;;;;;;;;26.80;93.80;;;;;;6102587;23;20001;-72
2023/07/20 10:49:04;;;;;;;;;;;26.80;95.60;;;;;;6110212;23;20317;-69
2023/07/20 10:51:30;;;;;;;;;;;26.80;93.60;;;;;;6112103;23;19928;-71
2023/07/20 10:53:58;;;;;;;;;;;26.80;91.70;;;;;;6108330;23;19961;-74
2023/07/20 10:56:25;;;;;;;;;;;26.90;93.20;;;;;;6107099;23;19929;-74
2023/07/20 10:58:55;;;;;;;;;;;27.00;93.00;;;;;;6098672;23;20042;-74
2023/07/20 11:01:20;;;;;;;;;;;27.20;94.30;;;;;;6103768;23;19933;-75
2023/07/20 11:03:50;;;;;;;;;;;27.30;93.60;;;;;;6104948;23;19944;-74
2023/07/20 11:06:25;;;;;;;;;;;27.40;92.20;;;;;;6106448;23;19927;-74
2023/07/20 11:09:14;;;;;;;;;;;27.40;91.50;;;;;;6106433;23;20225;-73
2023/07/20 11:11:41;;;;;;;;;;;27.50;92.20;;;;;;6109228;23;19928;-74
2023/07/20 11:14:10;;;;;;;;;;;27.60;93.60;;;;;;6107472;23;19945;-74
2023/07/20 11:16:46;;;;;;;;;;;27.60;93.20;;;;;;6107020;23;20266;-75
2023/07/20 11:19:17;;;;;;;;;;;27.50;93.30;;;;;;6104605;23;19930;-73
2023/07/20 11:21:44;;;;;;;;;;;27.50;91.00;;;;;;6108073;23;19927;-72
2023/07/20 11:24:10;;;;;;;;;;;27.50;90.40;;;;;;6109897;23;20306;-72
2023/07/20 11:26:41;;;;;;;;;;;27.50;88.80;;;;;;6106259;23;20039;-72
2023/07/20 11:29:07;;;;;;;;;;;27.40;89.40;;;;;;6100181;23;19949;-76
2023/07/20 11:31:39;;;;;;;;;;;27.40;90.80;;;;;;6103474;23;19930;-72
2023/07/20 11:34:05;;;;;;;;;;;27.50;91.70;;;;;;6106356;23;20298;-74
2023/07/20 11:36:30;;;;;;;;;;;27.50;91.30;;;;;;6104709;23;20035;-73
2023/07/20 11:38:56;;;;;;;;;;;27.50;89.10;;;;;;6109088;23;19953;-73
2023/07/20 11:41:22;;;;;;;;;;;27.50;90.30;;;;;;6109462;23;20464;-79
2023/07/20 11:43:47;;;;;;;;;;;27.50;90.70;;;;;;6109312;23;19967;-70
2023/07/20 11:46:13;;;;;;;;;;;27.50;91.20;;;;;;6108559;23;20404;-70
2023/07/20 11:48:39;;;;;;;;;;;27.60;91.50;;;;;;6110514;23;19913;-70
2023/07/20 11:51:05;;;;;;;;;;;27.40;91.20;;;;;;6105240;23;19940;-69
2023/07/20 11:53:33;;;;;;;;;;;27.40;90.70;;;;;;6107011;23;20057;-69
2023/07/20 11:55:59;;;;;;;;;;;27.70;88.10;;;;;;6107789;23;20220;-67
2023/07/20 11:58:24;;;;;;;;;;;27.90;89.10;;;;;;6106172;23;20012;-68
2023/07/20 12:00:50;;;;;;;;;;;28.00;87.30;;;;;;6108247;23;20004;-71
2023/07/20 12:03:15;;;;;;;;;;;28.10;81.20;;;;;;6103656;23;20734;-71
2023/07/20 12:05:41;;;;;;;;;;;27.90;85.90;;;;;;6101173;23;19940;-71
2023/07/20 12:08:07;;;;;;;;;;;27.80;86.00;;;;;;6102631;23;20357;-67
2023/07/20 12:10:32;;;;;;;;;;;27.80;83.60;;;;;;6102683;23;20351;-65
2023/07/20 12:13:03;;;;;;;;;;;27.70;81.50;;;;;;6105541;23;19930;-64
2023/07/20 12:15:31;;;;;;;;;;;27.60;83.20;;;;;;6102305;23;19923;-64
2023/07/20 12:17:58;;;;;;;;;;;27.30;83.50;;;;;;6102818;23;19956;-64
2023/07/20 12:20:26;;;;;;;;;;;27.20;83.50;;;;;;6104819;23;19954;-70
2023/07/20 12:22:52;;;;;;;;;;;27.20;82.70;;;;;;6106993;23;20296;-65
2023/07/20 12:25:20;;;;;;;;;;;27.40;85.10;;;;;;6105270;23;19934;-68
2023/07/20 12:27:47;;;;;;;;;;;27.60;85.40;;;;;;6106383;23;19947;-68
2023/07/20 12:30:16;;;;;;;;;;;27.60;82.40;;;;;;6101270;23;19981;-69
2023/07/20 12:32:42;;;;;;;;;;;27.50;81.40;;;;;;6108091;23;20158;-69
2023/07/20 12:35:08;;;;;;;;;;;27.60;85.90;;;;;;6108366;23;19939;-67
2023/07/20 12:37:33;;;;;;;;;;;27.80;81.10;;;;;;6108772;23;20738;-70
2023/07/20 12:39:58;;;;;;;;;;;27.80;80.50;;;;;;6108325;23;19944;-71
2023/07/20 12:42:24;;;;;;;;;;;27.80;81.50;;;;;;6109931;23;20427;-70
2023/07/20 12:44:50;;;;;;;;;;;27.80;80.60;;;;;;6107631;23;19956;-69
2023/07/20 12:47:16;;;;;;;;;;;27.80;81.50;;;;;;6106114;23;19955;-71
2023/07/20 12:49:45;;;;;;;;;;;27.90;79.50;;;;;;6103424;23;20598;-69
2023/07/20 12:52:11;;;;;;;;;;;27.70;77.60;;;;;;6109138;23;19929;-69
2023/07/20 12:54:36;;;;;;;;;;;27.60;77.80;;;;;;6109824;23;20383;-67
2023/07/20 12:57:03;;;;;;;;;;;27.60;80.90;;;;;;6110551;23;19958;-68
2023/07/20 12:59:28;;;;;;;;;;;27.70;81.00;;;;;;6109586;23;19925;-69
2023/07/20 13:01:54;;;;;;;;;;;27.70;79.70;;;;;;6107997;23;20001;-66
2023/07/20 13:04:19;;;;;;;;;;;27.90;83.10;;;;;;6106926;23;19980;-65
2023/07/20 13:06:45;;;;;;;;;;;28.10;82.90;;;;;;6109522;23;20608;-66
2023/07/20 13:09:10;;;;;;;;;;;28.20;82.50;;;;;;6110378;23;19995;-67
2023/07/20 13:11:36;;;;;;;;;;;28.30;81.80;;;;;;6108472;23;19926;-64
2023/07/20 13:14:01;;;;;;;;;;;28.30;82.30;;;;;;6102580;23;20090;-65
2023/07/20 13:16:27;;;;;;;;;;;28.20;82.40;;;;;;6109622;23;19928;-65
2023/07/20 13:18:53;;;;;;;;;;;28.30;80.70;;;;;;6108598;23;19927;-68
2023/07/20 13:21:22;;;;;;;;;;;28.40;82.60;;;;;;6108683;23;20001;-69
2023/07/20 13:23:48;;;;;;;;;;;28.40;80.00;;;;;;6111723;23;19965;-73
2023/07/20 13:26:14;;;;;;;;;;;28.20;76.20;;;;;;6110692;23;19924;-70
2023/07/20 13:28:39;;;;;;;;;;;28.00;79.50;;;;;;6109676;23;19942;-72
2023/07/20 13:31:05;;;;;;;;;;;27.90;82.20;;;;;;6110208;23;19935;-74
2023/07/20 13:33:30;;;;;;;;;;;27.90;82.20;;;;;;6109463;23;20377;-74
2023/07/20 13:35:56;;;;;;;;;;;27.90;78.80;;;;;;6109000;23;20085;-72
2023/07/20 13:38:22;;;;;;;;;;;28.00;82.50;;;;;;6112145;23;19932;-71
2023/07/20 13:40:47;;;;;;;;;;;28.00;81.60;;;;;;6110965;23;19963;-72
2023/07/20 13:43:13;;;;;;;;;;;28.00;73.40;;;;;;6108193;23;20043;-75
2023/07/20 13:45:39;;;;;;;;;;;27.90;76.10;;;;;;6107659;23;19929;-72
2023/07/20 13:48:04;;;;;;;;;;;27.90;81.60;;;;;;6111314;23;20307;-71
2023/07/20 13:50:30;;;;;;;;;;;27.90;80.20;;;;;;6109077;23;20019;-72
2023/07/20 13:52:55;;;;;;;;;;;28.00;81.30;;;;;;6111288;23;19927;-72
2023/07/20 13:55:21;;;;;;;;;;;28.00;82.30;;;;;;6107239;23;19929;-72
2023/07/20 13:57:47;;;;;;;;;;;28.10;81.60;;;;;;6106174;23;20345;-73
2023/07/20 14:00:13;;;;;;;;;;;28.20;80.60;;;;;;6109218;23;19931;-74
2023/07/20 14:02:39;;;;;;;;;;;28.20;80.70;;;;;;6109304;23;19934;-72
2023/07/20 14:05:04;;;;;;;;;;;28.30;81.50;;;;;;6102990;23;19927;-73
2023/07/20 14:07:30;;;;;;;;;;;28.40;81.30;;;;;;6105250;23;20001;-73
2023/07/20 14:09:55;;;;;;;;;;;28.30;83.40;;;;;;6106991;23;19955;-73
2023/07/20 14:12:21;;;;;;;;;;;28.30;84.20;;;;;;6104591;23;19927;-73